Wednesday, November 22, 2017, 7:55 AM EST
Back to Local

KBVY, Beverly Municipal Airport

Location: Danvers, MA, United States Lat: 42.583
Local Time: 7:55 AM EST (12:55 GMT) Lon: -70.917
Time Zone: US/Eastern Elev: 108 ft

Show me the last for .
Show Decoded

2017-11-22 06:53 METAR KBVY 221153Z 15005KT 10SM OVC080 11/08 A2994 RMK AO2 SLP135 T01060083
                 10106 20067 58016 =
2017-11-22 05:53 METAR KBVY 221053Z AUTO 17004KT 10SM OVC085 11/08 A2995 RMK AO2 SLP138 T01060078
                 =
2017-11-22 04:53 METAR KBVY 220953Z AUTO 17005KT 10SM OVC090 10/07 A2998 RMK AO2 SLP147 T01000067
                 =
2017-11-22 03:53 METAR KBVY 220853Z AUTO 17003KT 10SM CLR 08/05 A2999 RMK AO2 SLP151 T00780050
                 58003 =
2017-11-22 02:53 METAR KBVY 220753Z AUTO 00000KT 10SM CLR 08/04 A2999 RMK AO2 SLP152 T00830044 =
2017-11-22 01:53 METAR KBVY 220653Z AUTO 17004KT 10SM CLR 09/04 A3000 RMK AO2 SLP156 T00890039 =
2017-11-22 00:53 METAR KBVY 220553Z AUTO 17005KT 10SM CLR 08/03 A3000 RMK AO2 SLP154 T00830033
                 10111 20078 58002 =
2017-11-21 23:53 METAR KBVY 220453Z AUTO 18004KT 10SM CLR 08/03 A3002 RMK AO2 SLP162 T00780033
                 401560011 =
2017-11-21 22:53 METAR KBVY 220353Z AUTO 20005KT 10SM CLR 09/04 A3001 RMK AO2 SLP159 T00890039 =
2017-11-21 21:53 METAR KBVY 220253Z AUTO 20003KT 10SM CLR 09/03 A3000 RMK AO2 SLP157 T00890033
                 51003 =
2017-11-21 20:53 METAR KBVY 220153Z AUTO 21005KT 10SM CLR 09/03 A3000 RMK AO2 SLP156 T00940028 =
2017-11-21 19:53 METAR KBVY 220053Z 21008KT 10SM CLR 11/02 A3000 RMK AO2 SLP155 LAST T01060022 =
2017-11-21 18:53 METAR KBVY 212353Z 20007KT 10SM CLR 11/02 A2999 RMK AO2 SLP153 T01060017 10156
                 20106 53007 =
2017-11-21 17:53 METAR KBVY 212253Z 20008KT 10SM CLR 12/02 A2998 RMK AO2 SLP148 T01170017 =
2017-11-21 16:53 METAR KBVY 212153Z 20011KT 10SM CLR 12/01 A2998 RMK AO2 SLP148 T01220011 =
2017-11-21 15:53 METAR KBVY 212053Z 22016G25KT 10SM SCT200 13/M01 A2997 RMK AO2 PK WND 22026/2012
                 SLP146 T01331006 56005 =
2017-11-21 14:53 METAR KBVY 211953Z 22012G26KT 10SM SCT200 15/M01 A2998 RMK AO2 PK WND 19030/1921
                 SLP147 T01501011 =
2017-11-21 13:53 METAR KBVY 211853Z 22019G26KT 10SM SCT200 16/M02 A2998 RMK AO2 PK WND 23030/1800
                 SLP147 T01561022 =
2017-11-21 12:53 METAR KBVY 211753Z 21017G24KT 10SM CLR 15/M02 A2999 RMK AO2 PK WND 19029/1726
                 SLP151 T01501022 10150 20017 56035 =
2017-11-21 11:53 METAR KBVY 211653Z 21017G26KT 10SM SCT200 14/M03 A3002 RMK AO2 PK WND 24027/1616
                 SLP162 T01441033 =
2017-11-21 10:53 METAR KBVY 211553Z 22011G24KT 10SM BKN200 12/M02 A3006 RMK AO2 SLP174 T01221022
                 =
2017-11-21 09:53 METAR KBVY 211453Z 22009G15KT 10SM BKN200 11/M02 A3009 RMK AO2 SLP186 T01061017
                 58002 =
2017-11-21 08:53 METAR KBVY 211353Z 21005KT 10SM BKN200 06/M03 A3010 RMK AO2 SLP189 T00611028 =

Support USWX by starting your Amazon purchase here.